Time;durP1;ratioP1;P1;durP2;ratioP2;P2;SDS_P1;SDS_P2;PMS_P1;PMS_P2;Temp;Humidity;BMP_temperature;BMP_pressure;BME280_temperature;BME280_humidity;BME280_pressure;Samples;Min_cycle;Max_cycle;Signal;HPM_P1;HPM_P2
2022/05/09 00:02:08;;;;;;;6.30;3.28;;;;;;;12.13;83.00;98801.53;6269596;22;20206;-58
2022/05/09 00:04:34;;;;;;;4.80;3.50;;;;;;;12.19;83.63;98798.50;6256336;22;20156;-57
2022/05/09 00:07:01;;;;;;;6.82;3.03;;;;;;;12.44;82.30;98796.69;6257097;22;20152;-57
2022/05/09 00:09:26;;;;;;;7.75;2.88;;;;;;;12.58;81.70;98795.72;6264299;22;20617;-57
2022/05/09 00:11:52;;;;;;;7.35;3.13;;;;;;;12.46;82.78;98804.34;6269339;22;20207;-57
2022/05/09 00:14:18;;;;;;;4.07;3.00;;;;;;;12.38;83.33;98797.09;6269532;22;20213;-57
2022/05/09 00:16:44;;;;;;;4.22;2.95;;;;;;;12.24;84.04;98804.19;6268915;22;20199;-57
2022/05/09 00:19:11;;;;;;;6.38;2.95;;;;;;;12.16;85.11;98801.28;6267814;22;20171;-57
2022/05/09 00:21:40;;;;;;;5.90;3.58;;;;;;;11.94;87.28;98790.72;6269363;22;20591;-57
2022/05/09 00:24:08;;;;;;;6.97;3.47;;;;;;;11.85;88.09;98796.53;6264765;22;20149;-57
2022/05/09 00:26:33;;;;;;;6.18;3.22;;;;;;;11.73;89.56;98793.00;6255998;22;20346;-57
2022/05/09 00:29:00;;;;;;;4.05;2.90;;;;;;;11.63;90.90;98801.50;6257923;22;20178;-57
2022/05/09 00:31:26;;;;;;;3.17;2.88;;;;;;;11.78;90.32;98800.50;6266320;22;20215;-57
2022/05/09 00:33:52;;;;;;;5.63;3.03;;;;;;;11.87;88.77;98797.25;6269435;22;20505;-57
2022/05/09 00:36:17;;;;;;;3.08;2.80;;;;;;;11.46;91.77;98800.00;6269276;22;20172;-57
2022/05/09 00:38:46;;;;;;;5.60;3.85;;;;;;;11.11;93.90;98803.22;6269246;22;20152;-57
2022/05/09 00:44:05;;;;;;;3.70;3.38;;;;;;;10.79;96.46;98802.66;6269285;22;20175;-58
2022/05/09 00:46:30;;;;;;;4.53;3.50;;;;;;;11.12;94.21;98802.28;6256675;22;20178;-57
2022/05/09 00:49:40;;;;;;;6.25;3.00;;;;;;;11.33;91.77;98808.66;6257255;22;20573;-56
2022/05/09 00:52:32;;;;;;;5.78;3.10;;;;;;;11.32;91.64;98796.66;6258409;22;20262;-57
2022/05/09 00:55:04;;;;;;;4.78;3.45;;;;;;;11.46;91.23;98802.59;6268733;22;20191;-57
2022/05/09 00:57:35;;;;;;;3.30;3.00;;;;;;;11.59;89.69;98808.66;6269780;22;20140;-57
2022/05/09 01:00:07;;;;;;;4.38;2.95;;;;;;;11.24;92.13;98801.47;6269637;22;20140;-57
2022/05/09 01:02:34;;;;;;;3.70;3.28;;;;;;;11.10;94.26;98798.97;6267243;22;20644;-57
2022/05/09 01:05:01;;;;;;;3.20;2.90;;;;;;;10.67;99.25;98792.25;6269077;22;20160;-57
2022/05/09 01:07:30;;;;;;;3.88;2.97;;;;;;;10.53;100.00;98794.88;6256957;22;20163;-57
2022/05/09 01:09:55;;;;;;;4.88;3.35;;;;;;;10.63;100.00;98791.63;6254970;22;20223;-57
2022/05/09 01:12:25;;;;;;;7.53;3.33;;;;;;;10.92;99.26;98797.56;6263362;22;20180;-57
2022/05/09 01:14:51;;;;;;;4.03;3.20;;;;;;;10.92;98.57;98789.78;6268864;22;20705;-57
2022/05/09 01:17:20;;;;;;;3.42;2.92;;;;;;;10.87;98.61;98784.06;6268845;22;20188;-57
2022/05/09 01:19:47;;;;;;;4.50;3.47;;;;;;;10.66;100.00;98790.59;6269250;22;20152;-57
2022/05/09 01:22:23;;;;;;;6.10;3.67;;;;;;;10.71;100.00;98785.97;6269217;22;20145;-57
2022/05/09 01:24:49;;;;;;;3.70;3.00;;;;;;;10.90;98.12;98781.28;6269104;22;20223;-57
2022/05/09 01:27:14;;;;;;;5.30;3.50;;;;;;;10.89;97.45;98785.63;6264137;22;20587;-57
2022/05/09 01:29:45;;;;;;;5.88;3.85;;;;;;;11.15;95.56;98791.75;6255549;22;20536;-57
2022/05/09 01:32:13;;;;;;;6.75;3.65;;;;;;;11.30;94.33;98791.56;6256560;22;20644;-57
2022/05/09 01:34:46;;;;;;;4.47;3.47;;;;;;;11.15;96.19;98791.75;6268879;22;20553;-57
2022/05/09 01:37:13;;;;;;;8.15;3.55;;;;;;;10.99;97.80;98784.13;6267159;22;20149;-57
2022/05/09 01:39:39;;;;;;;4.03;3.42;;;;;;;11.24;95.38;98784.19;6269237;22;20539;-57
2022/05/09 01:42:09;;;;;;;4.90;3.35;;;;;;;11.31;94.51;98790.63;6268922;22;20605;-57
2022/05/09 01:44:37;;;;;;;7.00;3.53;;;;;;;10.99;97.05;98789.31;6269554;22;20643;-57
2022/05/09 01:49:49;;;;;;;3.45;3.15;;;;;;;10.93;95.50;98773.31;6255082;22;20652;-57
2022/05/09 01:52:15;;;;;;;3.78;3.25;;;;;;;10.78;96.58;98779.47;6257997;22;20183;-57
2022/05/09 01:54:43;;;;;;;3.42;3.13;;;;;;;10.65;97.73;98782.03;6266530;22;20145;-57
2022/05/09 01:57:10;;;;;;;5.15;3.63;;;;;;;10.83;96.20;98780.00;6270939;22;20191;-57
2022/05/09 01:59:40;;;;;;;3.25;2.95;;;;;;;11.06;94.26;98784.53;6270645;22;20175;-57
2022/05/09 02:02:14;;;;;;;4.35;3.38;;;;;;;10.81;95.78;98779.28;6270933;22;20167;-57
2022/05/09 02:04:40;;;;;;;6.38;3.92;;;;;;;10.70;96.61;98782.56;6269067;22;20144;-57
2022/05/09 02:07:09;;;;;;;5.15;3.83;;;;;;;10.68;96.85;98783.59;6270659;22;20152;-57
2022/05/09 02:09:39;;;;;;;4.05;3.65;;;;;;;10.77;96.42;98788.16;6263876;22;20362;-57
2022/05/09 02:12:06;;;;;;;5.65;4.45;;;;;;;10.63;97.09;98781.25;6257372;22;20175;-57
2022/05/09 02:14:31;;;;;;;4.65;4.15;;;;;;;10.39;99.59;98793.16;6260153;22;20144;-57
2022/05/09 02:16:57;;;;;;;4.40;4.00;;;;;;;10.62;97.45;98789.16;6268621;22;20249;-57
2022/05/09 02:19:22;;;;;;;4.65;3.95;;;;;;;10.73;96.63;98792.72;6270707;22;20148;-57
2022/05/09 02:21:48;;;;;;;4.90;3.75;;;;;;;10.72;95.56;98791.06;6270545;22;20145;-57
2022/05/09 02:24:13;;;;;;;4.88;3.50;;;;;;;10.68;96.38;98793.94;6270680;22;20478;-57
2022/05/09 02:26:39;;;;;;;5.30;3.92;;;;;;;10.54;97.39;98792.19;6270430;22;20148;-57
2022/05/09 02:29:05;;;;;;;7.53;4.43;;;;;;;10.49;97.81;98793.41;6270540;22;20500;-57
2022/05/09 02:31:31;;;;;;;4.60;3.97;;;;;;;10.47;97.99;98797.84;6258391;22;20207;-57
2022/05/09 02:33:57;;;;;;;7.55;4.50;;;;;;;10.39;99.97;98802.69;6258024;22;20621;-57
2022/05/09 02:36:22;;;;;;;4.28;3.83;;;;;;;10.21;100.00;98808.97;6264044;22;20202;-57
2022/05/09 02:38:48;;;;;;;5.07;4.22;;;;;;;9.97;100.00;98810.38;6270119;22;20148;-57
2022/05/09 02:41:13;;;;;;;4.85;4.32;;;;;;;10.09;100.00;98804.53;6270181;22;20515;-57
2022/05/09 02:43:39;;;;;;;5.50;3.85;;;;;;;10.08;100.00;98808.88;6270248;22;20148;-56
2022/05/09 02:46:05;;;;;;;8.90;4.05;;;;;;;10.02;100.00;98803.19;6270364;22;20198;-57
2022/05/09 02:48:31;;;;;;;5.07;3.65;;;;;;;10.17;100.00;98813.47;6270046;22;20598;-57
2022/05/09 02:50:57;;;;;;;5.28;4.05;;;;;;;10.42;100.00;98805.06;6267467;22;20152;-57
2022/05/09 02:53:23;;;;;;;6.15;3.30;;;;;;;10.47;100.00;98810.78;6256264;22;20191;-57
2022/05/09 02:55:48;;;;;;;7.25;4.20;;;;;;;10.45;100.00;98810.06;6258938;22;20160;-57
2022/05/09 02:58:14;;;;;;;4.95;3.78;;;;;;;10.39;100.00;98813.03;6267163;22;20312;-57
2022/05/09 03:00:40;;;;;;;4.30;4.00;;;;;;;10.46;100.00;98814.31;6268508;22;20153;-58
2022/05/09 03:05:50;;;;;;;4.53;3.90;;;;;;;10.46;100.00;98812.53;6270011;22;20143;-57
2022/05/09 03:08:17;;;;;;;4.82;4.07;;;;;;;10.30;100.00;98819.59;6268678;22;20650;-57
2022/05/09 03:10:42;;;;;;;6.25;4.50;;;;;;;10.34;100.00;98821.03;6270270;22;20177;-57
2022/05/09 03:13:10;;;;;;;6.63;4.38;;;;;;;10.51;100.00;98822.63;6260167;22;20192;-57
2022/05/09 03:15:38;;;;;;;5.90;4.40;;;;;;;10.43;100.00;98830.00;6255567;22;20203;-57
2022/05/09 03:18:06;;;;;;;5.70;4.07;;;;;;;10.35;100.00;98827.06;6261717;22;20262;-57
2022/05/09 03:20:31;;;;;;;5.18;4.78;;;;;;;10.44;100.00;98832.50;6268274;22;20156;-57
2022/05/09 03:22:57;;;;;;;5.68;4.55;;;;;;;10.24;100.00;98829.47;6268198;22;20508;-57
2022/05/09 03:25:23;;;;;;;4.50;3.95;;;;;;;10.18;100.00;98830.69;6269889;22;20159;-57
2022/05/09 03:27:48;;;;;;;6.18;4.43;;;;;;;10.08;100.00;98832.13;6269909;22;20150;-57
2022/05/09 03:30:15;;;;;;;6.40;4.78;;;;;;;10.24;100.00;98829.47;6269960;22;20239;-58
2022/05/09 03:32:41;;;;;;;7.68;4.60;;;;;;;10.36;100.00;98834.72;6269726;22;20313;-57
2022/05/09 03:35:08;;;;;;;8.23;4.43;;;;;;;10.26;100.00;98833.63;6255345;22;20648;-57
2022/05/09 03:37:34;;;;;;;3.72;3.42;;;;;;;10.37;96.77;98835.53;6257800;22;20144;-57
2022/05/09 03:39:59;;;;;;;6.88;3.70;;;;;;;10.42;93.14;98839.53;6265404;22;20156;-57
2022/05/09 03:42:25;;;;;;;4.85;3.38;;;;;;;10.51;87.53;98838.94;6269865;22;20140;-57
2022/05/09 03:44:51;;;;;;;2.97;2.75;;;;;;;10.52;84.80;98834.63;6269716;22;20159;-57
2022/05/09 03:47:17;;;;;;;3.28;3.08;;;;;;;10.56;85.62;98834.31;6268020;22;20152;-57
2022/05/09 03:49:43;;;;;;;6.03;3.72;;;;;;;10.68;86.29;98830.97;6269704;22;20232;-57
2022/05/09 03:52:08;;;;;;;5.63;3.80;;;;;;;10.77;89.15;98839.94;6269449;22;20176;-57
2022/05/09 03:54:36;;;;;;;4.57;4.15;;;;;;;10.77;90.46;98832.16;6264341;22;20156;-57
2022/05/09 03:57:02;;;;;;;4.82;3.47;;;;;;;10.98;84.48;98828.25;6256429;22;20182;-57
2022/05/09 03:59:28;;;;;;;5.35;3.40;;;;;;;10.98;81.97;98836.81;6258689;22;20625;-57
2022/05/09 04:01:56;;;;;;;3.80;3.47;;;;;;;10.98;80.49;98843.78;6268701;22;20247;-57
2022/05/09 04:04:21;;;;;;;2.97;2.75;;;;;;;10.97;79.00;98842.94;6269936;22;20235;-57
2022/05/09 04:06:49;;;;;;;5.75;3.03;;;;;;;11.02;78.74;98840.88;6267578;22;20161;-57
2022/05/09 04:09:15;;;;;;;3.35;3.00;;;;;;;10.95;80.29;98854.31;6269444;22;20202;-57
2022/05/09 04:11:42;;;;;;;4.07;3.13;;;;;;;11.03;80.78;98845.13;6267745;22;20176;-57
2022/05/09 04:14:07;;;;;;;4.32;3.33;;;;;;;11.17;79.73;98855.47;6269451;22;20164;-57
2022/05/09 04:16:51;;;;;;;3.67;2.95;;;;;;;11.18;77.82;98857.13;6258391;22;20526;-57
2022/05/09 04:19:20;;;;;;;4.43;2.90;;;;;;;11.42;76.60;98855.53;6256936;22;20132;-57
2022/05/09 04:21:46;;;;;;;2.83;2.40;;;;;;;11.49;74.66;98854.19;6261844;22;20541;-57
2022/05/09 04:24:12;;;;;;;3.33;2.65;;;;;;;11.68;73.92;98848.69;6269414;22;20223;-57
2022/05/09 04:26:37;;;;;;;5.32;3.08;;;;;;;11.69;73.89;98858.13;6269814;22;20219;-57
2022/05/09 04:29:03;;;;;;;4.60;2.92;;;;;;;11.81;73.17;98862.50;6269382;22;20148;-57
2022/05/09 04:31:29;;;;;;;3.40;2.80;;;;;;;11.72;73.12;98852.75;6269405;22;20176;-57
2022/05/09 04:33:55;;;;;;;4.93;2.92;;;;;;;11.78;72.72;98852.34;6269321;22;20149;-57
2022/05/09 04:36:22;;;;;;;4.40;2.90;;;;;;;11.87;72.91;98856.91;6265979;22;20484;-57
2022/05/09 04:38:50;;;;;;;2.80;2.60;;;;;;;12.01;71.53;98857.63;6255542;22;20452;-57
2022/05/09 04:41:18;;;;;;;2.90;2.60;;;;;;;12.09;71.27;98862.31;6255870;22;20180;-57
2022/05/09 04:43:44;;;;;;;3.22;2.72;;;;;;;11.83;72.30;98860.63;6265148;22;20191;-57
2022/05/09 04:46:09;;;;;;;3.38;2.63;;;;;;;12.00;71.86;98857.72;6269335;22;20657;-57
2022/05/09 04:48:35;;;;;;;3.17;2.72;;;;;;;12.05;71.94;98858.25;6269303;22;20156;-56
2022/05/09 04:51:01;;;;;;;2.70;2.47;;;;;;;12.24;70.91;98863.84;6269066;22;20625;-57
2022/05/09 04:53:27;;;;;;;4.40;2.85;;;;;;;12.34;70.74;98862.31;6269393;22;20152;-57
2022/05/09 04:55:56;;;;;;;3.88;2.95;;;;;;;12.39;69.14;98863.66;6269496;22;20890;-57
2022/05/09 04:58:22;;;;;;;2.83;2.63;;;;;;;12.47;69.30;98863.13;6260389;22;20499;-57
2022/05/09 05:00:48;;;;;;;4.35;2.60;;;;;;;12.61;68.37;98876.00;6256252;22;20184;-57
2022/05/09 05:03:14;;;;;;;3.25;2.80;;;;;;;12.70;67.99;98862.34;6260139;22;20152;-57
2022/05/09 05:05:40;;;;;;;4.20;2.65;;;;;;;12.90;66.49;98872.19;6269728;22;20149;-57
2022/05/09 05:08:06;;;;;;;6.38;3.35;;;;;;;12.99;65.98;98871.56;6269213;22;20148;-57
2022/05/09 05:10:31;;;;;;;4.05;3.22;;;;;;;13.11;66.41;98870.69;6269178;22;20494;-57
2022/05/09 05:12:58;;;;;;;3.70;3.40;;;;;;;13.31;66.52;98872.69;6269139;22;20326;-57
2022/05/09 05:15:27;;;;;;;7.22;3.80;;;;;;;13.44;67.10;98871.69;6269389;22;20149;-57
2022/05/09 05:17:53;;;;;;;6.53;4.88;;;;;;;13.70;71.58;98875.00;6269161;22;20673;-57
2022/05/09 05:20:18;;;;;;;7.53;3.80;;;;;;;13.86;71.36;98875.50;6253417;22;20156;-57
2022/05/09 05:22:48;;;;;;;6.95;4.57;;;;;;;14.00;71.97;98877.91;6256300;22;20144;-57
2022/05/09 05:25:22;;;;;;;8.68;4.63;;;;;;;14.20;72.56;98875.50;6264486;22;20190;-57
2022/05/09 05:27:48;;;;;;;7.78;4.63;;;;;;;14.36;71.94;98880.38;6271097;22;20140;-57
2022/05/09 05:30:15;;;;;;;11.73;5.32;;;;;;;14.52;71.97;98878.25;6271137;22;20152;-57
2022/05/09 05:32:42;;;;;;;6.90;4.50;;;;;;;14.72;71.23;98875.78;6270934;22;20176;-57
2022/05/09 05:35:13;;;;;;;8.05;4.90;;;;;;;14.87;70.55;98877.16;6271403;22;20160;-57
2022/05/09 05:37:39;;;;;;;8.55;4.93;;;;;;;14.99;70.27;98880.59;6271008;22;20175;-57
2022/05/09 05:40:06;;;;;;;9.95;5.10;;;;;;;15.09;68.71;98884.13;6264724;22;20565;-57
2022/05/09 05:42:32;;;;;;;11.25;4.50;;;;;;;15.15;68.61;98881.84;6258122;22;20149;-57
2022/05/09 05:44:58;;;;;;;10.18;4.90;;;;;;;15.24;68.74;98877.69;6259807;22;20183;-57
2022/05/09 05:47:24;;;;;;;15.07;5.22;;;;;;;15.32;67.59;98883.09;6270450;22;20571;-57
2022/05/09 05:49:50;;;;;;;15.82;5.70;;;;;;;15.41;67.77;98879.81;6270469;22;20525;-58
2022/05/09 05:52:16;;;;;;;10.75;6.00;;;;;;;15.50;67.81;98886.88;6270677;22;20183;-57
2022/05/09 05:54:44;;;;;;;21.92;6.40;;;;;;;15.56;68.05;98883.81;6270785;22;20191;-57
2022/05/09 05:57:31;;;;;;;14.88;7.43;;;;;;;15.62;67.98;98891.13;6270859;22;20511;-57
2022/05/09 06:00:10;;;;;;;11.93;6.32;;;;;;;15.53;68.71;98892.69;6270627;22;20144;-57
2022/05/09 06:02:38;;;;;;;18.95;8.07;;;;;;;15.61;68.01;98890.28;6256468;22;20200;-57
2022/05/09 06:05:08;;;;;;;13.10;6.07;;;;;;;15.46;66.38;98893.31;6258615;22;20159;-58
2022/05/09 06:07:35;;;;;;;10.13;6.60;;;;;;;15.52;67.37;98895.44;6266975;22;20143;-57
2022/05/09 06:10:01;;;;;;;13.02;5.90;;;;;;;15.63;67.28;98890.97;6269216;22;20155;-57
2022/05/09 06:12:26;;;;;;;13.70;6.25;;;;;;;15.76;67.34;98896.03;6268713;22;20207;-57
2022/05/09 06:17:37;;;;;;;13.93;5.20;;;;;;;15.80;67.26;98897.44;6270281;22;20254;-57
2022/05/09 06:20:09;;;;;;;12.35;5.47;;;;;;;15.95;66.65;98898.78;6270528;22;20186;-57
2022/05/09 06:22:38;;;;;;;12.50;5.38;;;;;;;16.11;65.19;98897.41;6261656;22;20160;-58
2022/05/09 06:25:05;;;;;;;10.45;5.05;;;;;;;16.23;64.75;98903.38;6257821;22;20152;-58
2022/05/09 06:27:32;;;;;;;8.80;5.15;;;;;;;16.33;65.02;98897.25;6261435;22;20148;-57
2022/05/09 06:30:00;;;;;;;16.75;5.00;;;;;;;16.47;64.57;98903.97;6270316;22;20152;-57
2022/05/09 06:32:25;;;;;;;11.30;5.05;;;;;;;16.17;65.49;98898.66;6270467;22;20622;-57
2022/05/09 06:34:52;;;;;;;6.00;4.40;;;;;;;16.18;65.50;98895.09;6270645;22;20205;-57
2022/05/09 06:37:17;;;;;;;8.52;4.63;;;;;;;16.33;65.94;98905.09;6270325;22;20195;-57
2022/05/09 06:39:43;;;;;;;7.82;5.30;;;;;;;16.47;65.99;98896.13;6270293;22;20586;-57
2022/05/09 06:42:08;;;;;;;7.65;4.47;;;;;;;16.29;67.52;98902.88;6270572;22;20152;-57
2022/05/09 06:44:35;;;;;;;7.75;4.80;;;;;;;16.42;67.49;98893.06;6256587;22;20155;-57
2022/05/09 06:47:03;;;;;;;11.70;4.30;;;;;;;16.48;67.27;98896.00;6258188;22;20152;-55
2022/05/09 06:49:28;;;;;;;10.68;4.47;;;;;;;16.61;67.74;98893.19;6266150;22;20144;-57
2022/05/09 06:51:53;;;;;;;10.38;4.35;;;;;;;16.76;66.78;98891.84;6268171;22;20218;-58
2022/05/09 06:54:21;;;;;;;10.27;4.43;;;;;;;16.93;65.17;98899.91;6270158;22;20148;-57
2022/05/09 06:56:47;;;;;;;8.95;4.70;;;;;;;17.05;64.63;98898.00;6270127;22;20155;-57
2022/05/09 06:59:13;;;;;;;7.05;4.85;;;;;;;17.03;64.57;98895.53;6270149;22;20148;-57
2022/05/09 07:01:38;;;;;;;5.05;4.20;;;;;;;16.70;65.94;98889.78;6270149;22;20148;-57
2022/05/09 07:04:04;;;;;;;11.27;4.43;;;;;;;16.52;66.92;98893.94;6264493;22;20545;-58
2022/05/09 07:06:30;;;;;;;6.03;4.30;;;;;;;16.59;66.61;98884.63;6256919;22;20152;-57
2022/05/09 07:08:55;;;;;;;9.77;4.55;;;;;;;16.74;66.17;98883.34;6259135;22;20835;-57
2022/05/09 07:11:21;;;;;;;9.75;4.65;;;;;;;16.92;65.60;98889.59;6269488;22;20152;-57
2022/05/09 07:13:46;;;;;;;5.00;4.50;;;;;;;17.05;64.48;98888.38;6270012;22;20183;-57
2022/05/09 07:16:13;;;;;;;7.80;4.47;;;;;;;17.02;65.27;98886.03;6269929;22;20245;-56
2022/05/09 07:18:39;;;;;;;8.10;5.00;;;;;;;17.03;64.55;98885.06;6270296;22;20156;-56
2022/05/09 07:21:05;;;;;;;12.13;4.80;;;;;;;17.03;65.57;98892.91;6270100;22;20709;-56
2022/05/09 07:23:31;;;;;;;9.50;4.40;;;;;;;17.19;64.72;98879.34;6270480;22;20151;-56
2022/05/09 07:25:57;;;;;;;9.75;4.25;;;;;;;17.27;64.03;98884.72;6259544;22;20557;-56
2022/05/09 07:28:22;;;;;;;11.48;4.90;;;;;;;17.29;64.18;98886.25;6257214;22;20155;-56
2022/05/09 07:30:49;;;;;;;8.75;4.88;;;;;;;17.43;63.64;98885.06;6259832;22;20152;-56
2022/05/09 07:33:17;;;;;;;10.55;5.05;;;;;;;17.50;63.37;98875.69;6269695;22;20175;-56
2022/05/09 07:35:44;;;;;;;6.70;4.53;;;;;;;17.61;63.34;98886.03;6269865;22;20235;-56
2022/05/09 07:38:11;;;;;;;9.98;4.88;;;;;;;17.72;62.73;98888.53;6270042;22;20148;-56
2022/05/09 07:40:38;;;;;;;9.05;4.63;;;;;;;17.83;62.33;98891.81;6269683;22;20598;-56
2022/05/09 07:43:12;;;;;;;8.88;4.65;;;;;;;17.96;61.61;98891.53;6270148;22;20168;-56
2022/05/09 07:45:39;;;;;;;8.75;4.50;;;;;;;17.72;62.05;98891.13;6268247;22;20136;-56
2022/05/09 07:48:05;;;;;;;9.18;4.60;;;;;;;17.88;62.36;98888.75;6255180;22;20357;-56
2022/05/09 07:50:30;;;;;;;9.40;4.95;;;;;;;17.89;61.88;98890.44;6258093;22;20143;-56
2022/05/09 07:52:56;;;;;;;6.40;4.93;;;;;;;17.96;61.65;98883.69;6266675;22;20175;-56
2022/05/09 07:55:21;;;;;;;7.03;5.00;;;;;;;17.65;62.21;98887.38;6267925;22;20181;-56
2022/05/09 07:57:47;;;;;;;9.02;4.60;;;;;;;17.66;62.42;98889.88;6269396;22;20151;-56
2022/05/09 08:00:13;;;;;;;9.35;4.97;;;;;;;17.87;62.45;98881.88;6269749;22;20148;-56
2022/05/09 08:02:41;;;;;;;7.95;4.57;;;;;;;18.04;61.76;98886.41;6269658;22;20168;-57
2022/05/09 08:05:10;;;;;;;6.95;4.50;;;;;;;18.20;60.44;98890.09;6269300;22;20227;-56
2022/05/09 08:07:39;;;;;;;12.18;4.60;;;;;;;18.30;60.05;98893.53;6261828;22;20171;-57
2022/05/09 08:10:06;;;;;;;9.43;4.53;;;;;;;18.33;60.16;98892.47;6256315;22;20152;-56
2022/05/09 08:12:32;;;;;;;6.07;4.45;;;;;;;18.30;60.71;98884.88;6259784;22;20563;-56
2022/05/09 08:14:58;;;;;;;8.18;4.30;;;;;;;18.37;60.46;98892.03;6269429;22;20186;-56
2022/05/09 08:17:23;;;;;;;9.00;4.60;;;;;;;18.13;60.65;98893.44;6269144;22;20205;-57
2022/05/09 08:19:54;;;;;;;8.85;4.38;;;;;;;18.24;60.77;98890.66;6270032;22;20159;-56
2022/05/09 08:22:20;;;;;;;6.13;4.10;;;;;;;18.37;60.05;98896.47;6269385;22;20193;-56
2022/05/09 08:24:46;;;;;;;7.82;4.47;;;;;;;18.32;61.90;98898.69;6269403;22;20151;-56
2022/05/09 08:27:11;;;;;;;4.97;3.80;;;;;;;18.27;61.94;98896.44;6269746;22;20147;-56
2022/05/09 08:29:37;;;;;;;9.15;4.53;;;;;;;18.28;61.18;98892.03;6255301;22;20266;-57
2022/05/09 08:32:03;;;;;;;7.20;4.35;;;;;;;17.90;62.85;98890.28;6256705;22;20171;-56
2022/05/09 08:34:28;;;;;;;8.93;4.40;;;;;;;18.12;62.56;98895.22;6263215;22;20144;-57
2022/05/09 08:36:54;;;;;;;12.35;8.23;;;;;;;18.10;62.25;98893.72;6269383;22;20148;-56
2022/05/09 08:39:20;;;;;;;10.07;5.85;;;;;;;18.24;62.10;98891.47;6269380;22;20202;-56
2022/05/09 08:41:48;;;;;;;8.75;4.10;;;;;;;18.31;60.54;98897.84;6269473;22;20147;-56
2022/05/09 08:44:21;;;;;;;8.57;3.75;;;;;;;18.33;60.95;98895.09;6269382;22;20495;-56
2022/05/09 08:46:59;;;;;;;9.10;3.70;;;;;;;18.48;60.67;98896.28;6269321;22;20534;-56
2022/05/09 08:49:44;;;;;;;4.25;3.80;;;;;;;18.63;60.30;98892.22;6264963;22;20160;-56
2022/05/09 08:52:41;;;;;;;6.60;3.50;;;;;;;18.85;59.88;98895.34;6255705;22;20226;-56
2022/05/09 08:55:07;;;;;;;7.97;3.78;;;;;;;19.04;59.72;98892.59;6248359;22;20665;-56
2022/05/09 08:58:00;;;;;;;6.63;3.50;;;;;;;19.24;58.16;98896.00;6267737;22;20270;-57
2022/05/09 09:00:30;;;;;;;8.13;3.72;;;;;;;19.36;57.46;98897.44;6270160;22;20218;-57
2022/05/09 09:03:01;;;;;;;8.10;3.85;;;;;;;19.47;58.41;98895.41;6271332;22;20136;-56
2022/05/09 09:05:33;;;;;;;5.82;4.10;;;;;;;19.63;57.42;98892.09;6271173;22;20140;-56
2022/05/09 09:08:17;;;;;;;7.22;3.85;;;;;;;19.79;57.37;98885.22;6269774;22;20154;-56
2022/05/09 09:11:00;;;;;;;5.68;3.80;;;;;;;19.95;57.54;98887.16;6265337;22;20166;-57
2022/05/09 09:14:10;;;;;;;6.32;4.30;;;;;;;20.07;55.53;98884.19;6258471;22;20950;-57
2022/05/09 09:16:35;;;;;;;5.70;3.90;;;;;;;20.10;55.52;98883.84;6264782;22;20278;-56
2022/05/09 09:19:19;;;;;;;6.95;3.65;;;;;;;20.04;56.21;98889.69;6271282;22;20179;-56
2022/05/09 09:22:03;;;;;;;5.15;4.05;;;;;;;19.83;56.40;98883.13;6271283;22;20139;-57
2022/05/09 09:25:07;;;;;;;4.50;3.90;;;;;;;20.02;55.96;98877.69;6271192;22;20219;-56
2022/05/09 09:27:44;;;;;;;3.03;2.83;;;;;;;20.16;55.22;98883.25;6271197;22;20190;-57
2022/05/09 09:30:16;;;;;;;7.03;3.50;;;;;;;20.31;55.24;98879.09;6271155;22;20128;-56
2022/05/09 09:32:45;;;;;;;5.05;3.70;;;;;;;20.46;55.31;98880.16;6259657;22;20187;-57
2022/05/09 09:35:42;;;;;;;5.22;3.83;;;;;;;20.66;53.91;98871.09;6258135;22;20148;-57
2022/05/09 09:38:17;;;;;;;8.50;3.58;;;;;;;20.70;54.42;98871.59;6267028;22;20140;-57
2022/05/09 09:40:43;;;;;;;7.00;3.85;;;;;;;20.79;54.59;98870.63;6271102;22;20155;-57
2022/05/09 09:43:08;;;;;;;5.65;3.75;;;;;;;20.95;53.62;98876.00;6271306;22;20579;-57
2022/05/09 09:45:44;;;;;;;4.63;3.13;;;;;;;21.00;53.32;98871.09;6270828;22;20692;-56
2022/05/09 09:48:23;;;;;;;3.63;3.20;;;;;;;20.82;53.46;98862.44;6271260;22;20146;-56
2022/05/09 09:51:07;;;;;;;5.05;3.40;;;;;;;20.70;54.31;98858.44;6271421;22;20151;-56
2022/05/09 09:53:45;;;;;;;6.88;5.38;;;;;;;20.78;53.91;98858.47;6260475;22;20195;-57
2022/05/09 09:56:31;;;;;;;4.82;4.13;;;;;;;20.89;53.63;98859.06;6258333;22;20180;-56
2022/05/09 09:59:15;;;;;;;3.70;3.40;;;;;;;20.84;53.71;98852.56;6265829;22;20150;-57
2022/05/09 10:01:41;;;;;;;4.95;3.30;;;;;;;21.06;53.88;98859.94;6270869;22;20510;-56
2022/05/09 10:04:13;;;;;;;5.65;3.85;;;;;;;21.27;53.29;98860.31;6270839;22;20236;-57
2022/05/09 10:07:00;;;;;;;6.43;3.65;;;;;;;21.36;53.20;98860.19;6270673;22;20147;-57
2022/05/09 10:09:29;;;;;;;8.18;3.58;;;;;;;21.53;51.96;98861.03;6270630;22;20167;-57
2022/05/09 10:12:12;;;;;;;5.13;3.40;;;;;;;21.52;52.42;98859.38;6270233;22;20187;-57
2022/05/09 10:14:38;;;;;;;3.53;2.97;;;;;;;21.69;52.25;98861.06;6260191;22;20377;-56
2022/05/09 10:17:20;;;;;;;4.38;3.40;;;;;;;21.75;51.30;98856.00;6258139;22;20725;-57
2022/05/09 10:19:46;;;;;;;5.13;3.30;;;;;;;21.75;51.52;98849.88;6264558;22;20217;-57
2022/05/09 10:25:13;;;;;;;7.63;3.25;;;;;;;21.67;50.78;98865.66;6270482;22;20147;-57
2022/05/09 10:27:40;;;;;;;3.65;3.20;;;;;;;21.83;50.36;98860.41;6270923;22;20211;-59
2022/05/09 10:30:30;;;;;;;6.90;3.33;;;;;;;21.91;50.81;98860.44;6270488;22;20155;-57
2022/05/09 10:33:24;;;;;;;6.60;2.70;;;;;;;22.00;49.61;98859.44;6268266;22;20558;-56
2022/05/09 10:35:56;;;;;;;8.43;3.15;;;;;;;22.14;50.17;98856.13;6259502;22;20598;-57
2022/05/09 10:38:40;;;;;;;5.47;3.13;;;;;;;22.37;49.96;98862.38;6257823;22;20594;-56
2022/05/09 10:41:22;;;;;;;3.03;2.75;;;;;;;22.40;47.96;98857.56;6263502;22;20211;-56
2022/05/09 10:43:58;;;;;;;3.13;2.88;;;;;;;22.33;48.00;98863.69;6270777;22;20140;-56
2022/05/09 10:46:35;;;;;;;3.63;2.92;;;;;;;22.09;48.14;98853.97;6268689;22;20143;-56
2022/05/09 10:49:16;;;;;;;6.35;2.88;;;;;;;22.05;48.79;98841.31;6270386;22;20594;-56
2022/05/09 10:52:06;;;;;;;10.43;3.20;;;;;;;21.89;50.00;98852.69;6270429;22;20523;-56
2022/05/09 10:54:49;;;;;;;4.25;2.83;;;;;;;22.06;50.54;98848.22;6268576;22;20491;-56
2022/05/09 10:57:31;;;;;;;8.70;3.80;;;;;;;22.05;50.28;98855.31;6254928;22;20187;-56
2022/05/09 11:00:12;;;;;;;4.20;3.00;;;;;;;22.10;50.04;98844.28;6258508;22;20177;-56
2022/05/09 11:02:50;;;;;;;3.25;3.05;;;;;;;22.40;49.18;98849.66;6267364;22;20132;-56
2022/05/09 11:05:16;;;;;;;5.72;3.10;;;;;;;22.73;48.87;98853.06;6270062;22;20143;-56
2022/05/09 11:07:55;;;;;;;3.92;2.72;;;;;;;22.82;46.32;98852.84;6270458;22;20509;-56
2022/05/09 11:10:33;;;;;;;6.03;2.85;;;;;;;22.98;45.42;98844.88;6270337;22;20482;-57
2022/05/09 11:13:16;;;;;;;4.00;2.70;;;;;;;23.18;44.74;98848.75;6270367;22;20307;-56
2022/05/09 11:16:03;;;;;;;2.22;2.00;;;;;;;23.31;41.27;98848.19;6270084;22;20217;-56
2022/05/09 11:18:53;;;;;;;7.72;2.17;;;;;;;23.50;39.20;98853.00;6255758;22;20156;-56
2022/05/09 11:21:44;;;;;;;3.85;1.85;;;;;;;23.69;37.47;98850.72;6256788;22;20213;-57
2022/05/09 11:24:12;;;;;;;3.72;2.28;;;;;;;23.83;38.20;98849.94;6268848;22;20538;-57
2022/05/09 11:27:02;;;;;;;4.75;2.15;;;;;;;23.95;38.86;98847.75;6267901;22;20213;-57
2022/05/09 11:29:55;;;;;;;4.10;2.40;;;;;;;23.77;39.01;98840.91;6270489;22;20136;-57
2022/05/09 11:32:41;;;;;;;4.35;2.58;;;;;;;23.61;39.56;98839.41;6270318;22;20179;-57
2022/05/09 11:35:07;;;;;;;2.80;2.22;;;;;;;23.66;38.45;98842.34;6270204;22;20217;-57
2022/05/09 11:37:53;;;;;;;2.47;2.28;;;;;;;23.69;39.09;98835.69;6265225;22;20602;-57
2022/05/09 11:40:46;;;;;;;3.38;2.30;;;;;;;24.11;39.17;98837.84;6256696;22;20392;-57
2022/05/09 11:43:34;;;;;;;5.68;2.17;;;;;;;23.95;36.55;98837.97;6259758;22;20128;-57
2022/05/09 11:46:29;;;;;;;3.08;1.90;;;;;;;24.14;35.32;98833.00;6269725;22;20578;-57
2022/05/09 11:49:13;;;;;;;4.05;1.90;;;;;;;24.06;35.80;98834.09;6269826;22;20139;-57
2022/05/09 11:51:46;;;;;;;4.28;1.90;;;;;;;24.14;35.75;98827.72;6269626;22;20205;-57
2022/05/09 11:54:17;;;;;;;3.40;1.90;;;;;;;24.04;34.39;98826.34;6268048;22;20582;-57
2022/05/09 11:56:47;;;;;;;1.90;1.77;;;;;;;24.36;33.14;98829.50;6269767;22;20152;-57
2022/05/09 11:59:20;;;;;;;4.50;2.17;;;;;;;24.77;33.68;98825.41;6262905;22;20714;-57
2022/05/09 12:02:03;;;;;;;2.75;1.88;;;;;;;24.85;33.37;98820.00;6255211;22;20163;-57